<?xml version="1.0" encoding="utf-8"?>
<gpx xmlns="http://www.topografix.com/GPX/1/1" version="1.1" creator="https://mapy.cz/">
	<trk>
		<name>Trnovce Xc</name>
		<trkseg>
			<trkpt lat="48.772530" lon="17.558683">
				<ele>347.000000</ele>
				<time>2024-04-05T06:52:19Z</time>
			</trkpt>
			<trkpt lat="48.772675" lon="17.558887">
				<ele>349.000000</ele>
				<time>2024-04-05T06:52:29Z</time>
			</trkpt>
			<trkpt lat="48.772858" lon="17.558845">
				<ele>352.000000</ele>
				<time>2024-04-05T06:52:38Z</time>
			</trkpt>
			<trkpt lat="48.773053" lon="17.558867">
				<ele>355.000000</ele>
				<time>2024-04-05T06:52:46Z</time>
			</trkpt>
			<trkpt lat="48.773234" lon="17.558954">
				<ele>359.000000</ele>
				<time>2024-04-05T06:52:55Z</time>
			</trkpt>
			<trkpt lat="48.773369" lon="17.559138">
				<ele>360.000000</ele>
				<time>2024-04-05T06:53:03Z</time>
			</trkpt>
			<trkpt lat="48.773546" lon="17.559054">
				<ele>362.000000</ele>
				<time>2024-04-05T06:53:11Z</time>
			</trkpt>
			<trkpt lat="48.773731" lon="17.558966">
				<ele>364.000000</ele>
				<time>2024-04-05T06:53:19Z</time>
			</trkpt>
			<trkpt lat="48.773928" lon="17.558963">
				<ele>366.000000</ele>
				<time>2024-04-05T06:53:27Z</time>
			</trkpt>
			<trkpt lat="48.774118" lon="17.558906">
				<ele>367.000000</ele>
				<time>2024-04-05T06:53:34Z</time>
			</trkpt>
			<trkpt lat="48.774015" lon="17.558678">
				<ele>366.000000</ele>
				<time>2024-04-05T06:53:42Z</time>
			</trkpt>
			<trkpt lat="48.773935" lon="17.558431">
				<ele>364.000000</ele>
				<time>2024-04-05T06:53:53Z</time>
			</trkpt>
			<trkpt lat="48.774025" lon="17.558194">
				<ele>364.000000</ele>
				<time>2024-04-05T06:54:04Z</time>
			</trkpt>
			<trkpt lat="48.774174" lon="17.558015">
				<ele>367.000000</ele>
				<time>2024-04-05T06:54:11Z</time>
			</trkpt>
			<trkpt lat="48.774374" lon="17.557940">
				<ele>367.000000</ele>
				<time>2024-04-05T06:54:18Z</time>
			</trkpt>
			<trkpt lat="48.774555" lon="17.557853">
				<ele>369.000000</ele>
				<time>2024-04-05T06:54:24Z</time>
			</trkpt>
			<trkpt lat="48.774740" lon="17.557744">
				<ele>370.000000</ele>
				<time>2024-04-05T06:54:30Z</time>
			</trkpt>
			<trkpt lat="48.774876" lon="17.557524">
				<ele>371.000000</ele>
				<time>2024-04-05T06:54:37Z</time>
			</trkpt>
			<trkpt lat="48.775051" lon="17.557307">
				<ele>372.000000</ele>
				<time>2024-04-05T06:54:47Z</time>
			</trkpt>
			<trkpt lat="48.775139" lon="17.557056">
				<ele>372.000000</ele>
				<time>2024-04-05T06:54:54Z</time>
			</trkpt>
			<trkpt lat="48.775299" lon="17.556902">
				<ele>372.000000</ele>
				<time>2024-04-05T06:57:39Z</time>
			</trkpt>
			<trkpt lat="48.775434" lon="17.556702">
				<ele>373.000000</ele>
				<time>2024-04-05T06:57:49Z</time>
			</trkpt>
			<trkpt lat="48.775589" lon="17.556504">
				<ele>373.000000</ele>
				<time>2024-04-05T06:57:59Z</time>
			</trkpt>
			<trkpt lat="48.775547" lon="17.556233">
				<ele>371.000000</ele>
				<time>2024-04-05T06:58:10Z</time>
			</trkpt>
			<trkpt lat="48.775618" lon="17.555962">
				<ele>370.000000</ele>
				<time>2024-04-05T06:58:22Z</time>
			</trkpt>
			<trkpt lat="48.775708" lon="17.555704">
				<ele>369.000000</ele>
				<time>2024-04-05T06:58:30Z</time>
			</trkpt>
			<trkpt lat="48.775873" lon="17.555568">
				<ele>370.000000</ele>
				<time>2024-04-05T07:00:07Z</time>
			</trkpt>
			<trkpt lat="48.776031" lon="17.555391">
				<ele>370.000000</ele>
				<time>2024-04-05T07:00:16Z</time>
			</trkpt>
			<trkpt lat="48.776144" lon="17.555175">
				<ele>370.000000</ele>
				<time>2024-04-05T07:00:22Z</time>
			</trkpt>
			<trkpt lat="48.776287" lon="17.555002">
				<ele>370.000000</ele>
				<time>2024-04-05T07:00:28Z</time>
			</trkpt>
			<trkpt lat="48.776170" lon="17.554783">
				<ele>366.000000</ele>
				<time>2024-04-05T07:00:40Z</time>
			</trkpt>
			<trkpt lat="48.776111" lon="17.554511">
				<ele>364.000000</ele>
				<time>2024-04-05T07:00:49Z</time>
			</trkpt>
			<trkpt lat="48.776072" lon="17.554240">
				<ele>360.000000</ele>
				<time>2024-04-05T07:01:13Z</time>
			</trkpt>
			<trkpt lat="48.775885" lon="17.554214">
				<ele>355.000000</ele>
				<time>2024-04-05T07:01:45Z</time>
			</trkpt>
			<trkpt lat="48.775761" lon="17.553966">
				<ele>357.000000</ele>
				<time>2024-04-05T07:01:56Z</time>
			</trkpt>
			<trkpt lat="48.775570" lon="17.553890">
				<ele>357.000000</ele>
				<time>2024-04-05T07:02:03Z</time>
			</trkpt>
			<trkpt lat="48.775393" lon="17.554059">
				<ele>356.000000</ele>
				<time>2024-04-05T07:02:09Z</time>
			</trkpt>
			<trkpt lat="48.775204" lon="17.554141">
				<ele>355.000000</ele>
				<time>2024-04-05T07:02:16Z</time>
			</trkpt>
			<trkpt lat="48.775037" lon="17.554243">
				<ele>358.000000</ele>
				<time>2024-04-05T07:02:23Z</time>
			</trkpt>
			<trkpt lat="48.774861" lon="17.554390">
				<ele>360.000000</ele>
				<time>2024-04-05T07:02:30Z</time>
			</trkpt>
			<trkpt lat="48.774681" lon="17.554499">
				<ele>360.000000</ele>
				<time>2024-04-05T07:02:36Z</time>
			</trkpt>
			<trkpt lat="48.774521" lon="17.554674">
				<ele>360.000000</ele>
				<time>2024-04-05T07:02:45Z</time>
			</trkpt>
			<trkpt lat="48.774366" lon="17.554888">
				<ele>359.000000</ele>
				<time>2024-04-05T07:02:53Z</time>
			</trkpt>
			<trkpt lat="48.774213" lon="17.555063">
				<ele>362.000000</ele>
				<time>2024-04-05T07:02:58Z</time>
			</trkpt>
			<trkpt lat="48.774086" lon="17.555259">
				<ele>359.000000</ele>
				<time>2024-04-05T07:03:03Z</time>
			</trkpt>
			<trkpt lat="48.773891" lon="17.555436">
				<ele>359.000000</ele>
				<time>2024-04-05T07:03:09Z</time>
			</trkpt>
			<trkpt lat="48.773703" lon="17.555600">
				<ele>364.000000</ele>
				<time>2024-04-05T07:03:15Z</time>
			</trkpt>
			<trkpt lat="48.773568" lon="17.555828">
				<ele>363.000000</ele>
				<time>2024-04-05T07:03:23Z</time>
			</trkpt>
			<trkpt lat="48.773378" lon="17.555961">
				<ele>363.000000</ele>
				<time>2024-04-05T07:03:28Z</time>
			</trkpt>
			<trkpt lat="48.773222" lon="17.556175">
				<ele>364.000000</ele>
				<time>2024-04-05T07:03:33Z</time>
			</trkpt>
			<trkpt lat="48.773041" lon="17.556319">
				<ele>366.000000</ele>
				<time>2024-04-05T07:03:40Z</time>
			</trkpt>
			<trkpt lat="48.772927" lon="17.556552">
				<ele>362.000000</ele>
				<time>2024-04-05T07:03:46Z</time>
			</trkpt>
			<trkpt lat="48.772840" lon="17.556808">
				<ele>360.000000</ele>
				<time>2024-04-05T07:03:50Z</time>
			</trkpt>
			<trkpt lat="48.772764" lon="17.557056">
				<ele>361.000000</ele>
				<time>2024-04-05T07:03:53Z</time>
			</trkpt>
			<trkpt lat="48.772625" lon="17.557296">
				<ele>357.000000</ele>
				<time>2024-04-05T07:03:58Z</time>
			</trkpt>
			<trkpt lat="48.772532" lon="17.557579">
				<ele>354.000000</ele>
				<time>2024-04-05T07:04:03Z</time>
			</trkpt>
			<trkpt lat="48.772566" lon="17.557882">
				<ele>352.000000</ele>
				<time>2024-04-05T07:04:06Z</time>
			</trkpt>
			<trkpt lat="48.772604" lon="17.558156">
				<ele>355.000000</ele>
				<time>2024-04-05T07:04:09Z</time>
			</trkpt>
			<trkpt lat="48.772609" lon="17.558452">
				<ele>355.000000</ele>
				<time>2024-04-05T07:04:13Z</time>
			</trkpt>
		</trkseg>
	</trk>
</gpx>

